createdAt,value
2022-10-05T00:00:51.298Z,63.42
2022-10-05T00:03:39.097Z,63.71
2022-10-05T00:06:09.702Z,64.48
2022-10-05T00:08:37.507Z,64.89
2022-10-05T00:11:08.707Z,64.56
2022-10-05T00:13:36.452Z,65.01
2022-10-05T00:16:22.902Z,65.52
2022-10-05T00:18:54.021Z,65.67
2022-10-05T00:21:29.348Z,65.59
2022-10-05T00:24:11.044Z,65.05
2022-10-05T00:26:38.823Z,65.06
2022-10-05T00:29:21.051Z,64.77
2022-10-05T00:31:49.521Z,64.96
2022-10-05T00:34:17.872Z,64.76
2022-10-05T00:36:45.819Z,65.00
2022-10-05T00:39:13.776Z,65.02
2022-10-05T00:41:47.931Z,65.30
2022-10-05T00:44:47.391Z,64.88
2022-10-05T00:47:27.618Z,65.06
2022-10-05T00:50:31.075Z,65.43
2022-10-05T00:53:39.480Z,65.54
2022-10-05T00:56:29.375Z,65.80
2022-10-05T00:59:20.837Z,65.66
2022-10-05T01:02:09.044Z,65.78
2022-10-05T01:04:48.580Z,66.06
2022-10-05T01:07:49.140Z,65.86
2022-10-05T01:10:46.698Z,66.14
2022-10-05T01:13:31.740Z,66.06
2022-10-05T01:16:22.146Z,66.77
2022-10-05T01:19:33.283Z,66.46
2022-10-05T01:22:18.453Z,66.89
2022-10-05T01:25:07.958Z,66.82
2022-10-05T01:27:38.455Z,67.12
2022-10-05T01:30:12.329Z,67.01
2022-10-05T01:32:55.711Z,67.90
2022-10-05T01:35:26.046Z,68.54
2022-10-05T01:38:11.804Z,68.75
2022-10-05T01:40:42.842Z,68.69
2022-10-05T01:43:19.914Z,69.02
2022-10-05T01:45:52.929Z,69.05
2022-10-05T01:48:53.191Z,69.05
2022-10-05T01:51:57.117Z,68.86
2022-10-05T01:54:51.040Z,69.47
2022-10-05T01:57:47.725Z,69.47
2022-10-05T02:00:18.135Z,69.25
2022-10-05T02:02:56.529Z,69.26
2022-10-05T02:05:37.980Z,69.09
2022-10-05T02:08:12.503Z,68.93
2022-10-05T02:10:48.269Z,69.11
2022-10-05T02:13:28.201Z,69.11
2022-10-05T02:16:01.963Z,68.77
2022-10-05T02:18:39.088Z,68.53
2022-10-05T02:21:07.942Z,68.53
2022-10-05T02:23:39.308Z,68.64
2022-10-05T02:26:09.056Z,68.29
2022-10-05T02:28:42.808Z,68.23
2022-10-05T02:31:14.206Z,68.18
2022-10-05T02:33:41.686Z,68.48
2022-10-05T02:36:16.133Z,68.18
2022-10-05T02:39:19.690Z,68.41
2022-10-05T02:42:12.846Z,67.95
2022-10-05T02:45:00.226Z,67.97
2022-10-05T02:47:43.788Z,67.93
2022-10-05T02:50:34.080Z,68.00
2022-10-05T02:53:21.963Z,67.99
2022-10-05T02:55:59.873Z,68.09
2022-10-05T02:58:44.676Z,68.19
2022-10-05T03:01:21.016Z,67.88
2022-10-05T03:04:06.066Z,68.17
2022-10-05T03:06:41.045Z,68.30
2022-10-05T03:09:10.223Z,67.97
2022-10-05T03:11:46.455Z,68.30
2022-10-05T03:14:36.956Z,68.28
2022-10-05T03:17:21.496Z,68.40
2022-10-05T03:20:12.738Z,68.45
2022-10-05T03:23:03.692Z,67.92
2022-10-05T03:25:47.933Z,68.10
2022-10-05T03:28:26.868Z,68.53
2022-10-05T03:31:03.051Z,68.38
2022-10-05T03:33:56.289Z,68.01
2022-10-05T03:36:48.297Z,68.42
2022-10-05T03:39:31.650Z,68.51
2022-10-05T03:42:19.880Z,68.39
2022-10-05T03:45:04.181Z,68.57
2022-10-05T03:48:01.468Z,68.71
2022-10-05T03:50:38.138Z,68.69
2022-10-05T03:53:20.145Z,68.61
2022-10-05T03:55:59.828Z,68.84
2022-10-05T03:58:39.751Z,69.18
2022-10-05T04:01:18.992Z,69.06
2022-10-05T04:06:43.796Z,69.27
2022-10-05T04:09:11.188Z,69.16
2022-10-05T04:12:01.892Z,69.70
2022-10-05T04:14:46.366Z,69.67
2022-10-05T04:17:19.591Z,69.88
2022-10-05T04:20:16.974Z,69.74
2022-10-05T04:22:59.850Z,69.35
2022-10-05T04:25:46.331Z,69.47
2022-10-05T04:28:32.602Z,69.71
2022-10-05T04:37:22.462Z,69.44
2022-10-05T04:39:59.123Z,69.63
2022-10-05T04:43:04.527Z,69.39
2022-10-05T04:45:56.232Z,69.56
2022-10-05T04:48:49.720Z,69.60
2022-10-05T04:52:31.677Z,69.03
2022-10-05T04:55:15.809Z,69.08
2022-10-05T04:58:00.397Z,69.29
2022-10-05T05:00:40.261Z,69.10
2022-10-05T05:06:30.052Z,69.14
2022-10-05T05:09:36.129Z,69.20
2022-10-05T05:12:15.293Z,69.26
2022-10-05T05:18:18.250Z,68.89
2022-10-05T05:21:02.317Z,68.74
2022-10-05T05:27:26.113Z,68.13
2022-10-05T05:30:17.128Z,67.18
2022-10-05T05:33:07.347Z,67.40
2022-10-05T05:36:01.918Z,67.01
2022-10-05T05:38:33.124Z,66.96
2022-10-05T05:41:13.863Z,67.06
2022-10-05T05:44:23.895Z,66.85
2022-10-05T05:50:43.088Z,66.71
2022-10-05T05:53:18.650Z,66.70
2022-10-05T05:56:17.274Z,66.82
2022-10-05T05:58:54.287Z,66.45
2022-10-05T06:01:44.561Z,66.41
2022-10-05T06:04:31.652Z,66.55
2022-10-05T06:07:20.430Z,66.97
2022-10-05T06:16:07.883Z,66.33
2022-10-05T06:18:48.495Z,66.68
2022-10-05T06:21:36.002Z,66.48
2022-10-05T06:24:06.260Z,66.60
2022-10-05T06:26:38.898Z,66.28
2022-10-05T06:35:51.611Z,65.69
2022-10-05T06:38:47.398Z,65.65
2022-10-05T06:41:26.844Z,65.89
2022-10-05T06:44:04.014Z,65.61
2022-10-05T06:46:51.484Z,65.33
2022-10-05T06:49:28.605Z,65.60
2022-10-05T06:52:39.472Z,64.87
2022-10-05T06:55:49.749Z,64.82
2022-10-05T07:01:54.217Z,64.29
2022-10-05T07:12:03.737Z,63.44
2022-10-05T07:14:55.992Z,62.64
2022-10-05T07:17:34.995Z,62.50
2022-10-05T07:20:24.004Z,61.21
2022-10-05T07:23:06.743Z,61.23
2022-10-05T07:25:47.670Z,59.89
2022-10-05T07:28:28.251Z,58.95
2022-10-05T07:31:22.075Z,59.18
2022-10-05T07:34:21.467Z,59.21
2022-10-05T07:37:24.691Z,59.29
2022-10-05T07:40:23.448Z,58.61
2022-10-05T07:43:03.960Z,58.67
2022-10-05T07:45:33.867Z,58.53
2022-10-05T07:48:26.531Z,57.60
2022-10-05T07:51:13.326Z,58.25
2022-10-05T07:54:00.930Z,57.23
2022-10-05T07:56:41.275Z,56.85
2022-10-05T08:02:20.523Z,57.82
2022-10-05T08:04:59.717Z,58.07
2022-10-05T08:10:44.612Z,57.16
2022-10-05T08:13:23.564Z,56.08
2022-10-05T08:15:58.070Z,55.01
2022-10-05T08:18:46.326Z,54.76
2022-10-05T08:21:16.391Z,53.89
2022-10-05T08:23:59.123Z,52.24
2022-10-05T08:26:35.598Z,48.20
2022-10-05T08:29:20.252Z,47.92
2022-10-05T08:31:52.735Z,45.07
2022-10-05T08:34:32.367Z,45.44
2022-10-05T08:37:13.649Z,43.71
2022-10-05T08:39:47.871Z,44.26
2022-10-05T08:42:56.384Z,43.34
2022-10-05T08:52:04.306Z,39.28
2022-10-05T08:54:39.722Z,38.78
2022-10-05T09:00:54.500Z,34.62
2022-10-05T09:03:35.380Z,32.36
2022-10-05T09:06:34.859Z,31.19
2022-10-05T09:09:26.544Z,29.54
2022-10-05T09:12:14.340Z,28.86
2022-10-05T09:15:27.244Z,28.26
2022-10-05T09:18:19.111Z,30.48
2022-10-05T09:20:54.444Z,32.38
2022-10-05T09:23:43.809Z,34.03
2022-10-05T09:26:41.783Z,31.30
2022-10-05T09:29:16.074Z,30.60
2022-10-05T09:32:02.680Z,31.97
2022-10-05T09:34:56.104Z,32.90
2022-10-05T09:37:30.339Z,34.00
2022-10-05T09:40:28.828Z,35.89
2022-10-05T09:43:15.227Z,37.70
2022-10-05T09:46:05.894Z,36.15
2022-10-05T09:49:03.198Z,35.73
2022-10-05T09:52:01.426Z,36.50
2022-10-05T09:55:14.713Z,38.11
2022-10-05T09:58:15.218Z,36.79
2022-10-05T10:01:09.020Z,38.47
2022-10-05T10:04:10.049Z,37.85
2022-10-05T10:06:46.848Z,37.53
2022-10-05T10:09:53.286Z,38.65
2022-10-05T10:12:32.113Z,39.34
2022-10-05T10:15:24.533Z,39.40
2022-10-05T10:18:20.439Z,39.50
2022-10-05T10:21:06.245Z,38.43
2022-10-05T10:24:04.194Z,38.04
2022-10-05T10:26:56.535Z,37.35
2022-10-05T10:30:17.397Z,37.35
2022-10-05T10:33:27.719Z,37.31
2022-10-05T10:36:06.997Z,36.76
2022-10-05T10:39:20.397Z,38.13
2022-10-05T10:42:06.727Z,39.00
2022-10-05T10:44:59.594Z,38.67
2022-10-05T10:53:42.038Z,41.64
2022-10-05T10:59:48.500Z,42.54
2022-10-05T11:02:35.348Z,41.27
2022-10-05T11:05:21.457Z,40.31
2022-10-05T11:08:24.738Z,42.30
2022-10-05T11:11:35.561Z,42.49
2022-10-05T11:17:47.438Z,42.75
2022-10-05T11:21:08.594Z,41.75
2022-10-05T11:31:02.180Z,40.65
2022-10-05T12:10:35.831Z,40.99
2022-10-05T12:23:20.970Z,40.07
2022-10-05T12:26:04.824Z,40.20
2022-10-05T12:28:41.418Z,40.18
2022-10-05T12:31:39.375Z,39.92
2022-10-05T12:34:19.719Z,39.27
2022-10-05T12:37:06.718Z,39.83
2022-10-05T12:39:53.077Z,39.31
2022-10-05T12:42:47.568Z,40.01
2022-10-05T12:45:18.153Z,39.57
2022-10-05T12:48:20.832Z,39.35
2022-10-05T12:51:00.773Z,39.07
2022-10-05T12:54:06.795Z,39.00
2022-10-05T12:56:49.178Z,38.86
2022-10-05T12:59:38.097Z,39.54
2022-10-05T13:02:22.659Z,40.15
2022-10-05T13:05:08.994Z,40.37
2022-10-05T13:08:03.681Z,40.49
2022-10-05T13:10:39.134Z,39.80
2022-10-05T13:13:39.640Z,39.41
2022-10-05T13:16:36.311Z,39.89
2022-10-05T13:19:28.905Z,39.68
2022-10-05T13:22:22.272Z,39.91
2022-10-05T13:25:21.684Z,39.97
2022-10-05T13:28:17.618Z,40.01
2022-10-05T13:30:55.735Z,40.22
2022-10-05T13:36:55.504Z,40.46
2022-10-05T13:39:57.278Z,40.56
2022-10-05T13:42:42.517Z,40.20
2022-10-05T13:45:20.444Z,40.99
2022-10-05T13:48:44.244Z,40.73
2022-10-05T13:52:07.767Z,40.53
2022-10-05T13:55:09.309Z,40.60
2022-10-05T14:01:02.593Z,41.15
2022-10-05T14:03:36.047Z,41.16
2022-10-05T14:06:12.459Z,40.95
2022-10-05T14:08:52.811Z,41.12
2022-10-05T14:11:26.829Z,40.88
2022-10-05T14:14:19.127Z,41.08
2022-10-05T14:16:58.236Z,41.45
2022-10-05T14:19:30.970Z,41.89
2022-10-05T14:22:11.386Z,41.19
2022-10-05T14:25:02.626Z,41.41
2022-10-05T14:27:36.233Z,41.73
2022-10-05T14:30:30.427Z,41.62
2022-10-05T14:33:05.785Z,41.99
2022-10-05T14:35:54.195Z,42.46
2022-10-05T14:38:50.015Z,42.05
2022-10-05T14:41:20.016Z,42.70
2022-10-05T14:44:04.905Z,43.11
2022-10-05T14:46:35.107Z,42.68
2022-10-05T14:49:12.822Z,42.84
2022-10-05T14:51:42.852Z,43.43
2022-10-05T14:54:43.172Z,43.43
2022-10-05T15:00:21.858Z,43.83
2022-10-05T15:03:11.189Z,44.40
2022-10-05T15:05:58.966Z,44.28
2022-10-05T15:08:43.358Z,44.17
2022-10-05T15:11:32.204Z,44.21
2022-10-05T15:14:00.724Z,44.85
2022-10-05T15:16:33.457Z,44.81
2022-10-05T15:19:34.014Z,45.30
2022-10-05T15:22:35.589Z,45.36
2022-10-05T15:25:23.297Z,45.87
2022-10-05T15:28:08.399Z,46.31
2022-10-05T15:30:47.620Z,46.26
2022-10-05T15:33:46.505Z,46.63
2022-10-05T15:36:35.591Z,46.22
2022-10-05T15:39:21.334Z,46.37
2022-10-05T15:42:03.606Z,46.86
2022-10-05T15:44:49.764Z,46.97
2022-10-05T15:47:45.349Z,46.92
2022-10-05T15:50:18.534Z,47.35
2022-10-05T15:53:04.637Z,47.46
2022-10-05T15:55:43.075Z,47.97
2022-10-05T15:58:42.705Z,48.45
2022-10-05T16:01:18.906Z,48.64
2022-10-05T16:03:53.861Z,48.70
2022-10-05T16:07:04.969Z,48.80
2022-10-05T16:10:09.934Z,49.12
2022-10-05T16:13:15.570Z,49.55
2022-10-05T16:15:48.991Z,50.08
2022-10-05T16:18:37.080Z,50.76
2022-10-05T16:21:19.884Z,50.99
2022-10-05T16:24:02.255Z,51.36
2022-10-05T16:27:04.441Z,50.38
2022-10-05T16:29:46.173Z,51.29
2022-10-05T16:32:22.251Z,52.19
2022-10-05T16:35:01.367Z,53.05
2022-10-05T16:37:38.959Z,52.77
2022-10-05T16:40:20.937Z,53.40
2022-10-05T16:43:01.427Z,54.50
2022-10-05T16:45:47.040Z,54.18
2022-10-05T16:48:30.931Z,56.26
2022-10-05T16:51:09.672Z,55.65
2022-10-05T16:53:51.478Z,55.33
2022-10-05T16:56:25.436Z,54.87
2022-10-05T16:58:55.829Z,54.71
2022-10-05T17:01:42.111Z,55.62
2022-10-05T17:04:32.059Z,56.31
2022-10-05T17:07:06.253Z,56.27
2022-10-05T17:09:51.108Z,56.20
2022-10-05T17:12:40.376Z,57.53
2022-10-05T17:15:30.185Z,58.56
2022-10-05T17:18:09.808Z,58.52
2022-10-05T17:20:55.926Z,58.55
2022-10-05T17:23:31.472Z,58.63
2022-10-05T17:26:08.390Z,58.15
2022-10-05T17:28:57.987Z,58.40
2022-10-05T17:31:28.593Z,58.47
2022-10-05T17:34:18.006Z,59.01
2022-10-05T17:39:50.421Z,59.50
2022-10-05T17:42:30.035Z,59.63
2022-10-05T17:45:14.958Z,59.58
2022-10-05T17:48:03.826Z,59.83
2022-10-05T17:54:36.796Z,59.50
2022-10-05T17:57:04.731Z,60.44
2022-10-05T17:59:53.820Z,60.14
2022-10-05T18:02:37.610Z,60.26
2022-10-05T18:05:05.214Z,61.07
2022-10-05T18:07:37.334Z,61.82
2022-10-05T18:10:11.673Z,62.64
2022-10-05T18:13:07.500Z,62.48
2022-10-05T18:15:34.493Z,62.81
2022-10-05T18:18:36.637Z,62.48
2022-10-05T18:21:19.059Z,63.78
2022-10-05T18:23:57.895Z,63.45
2022-10-05T18:27:21.920Z,63.65
2022-10-05T18:30:13.768Z,63.75
2022-10-05T18:33:09.570Z,62.90
2022-10-05T18:35:39.684Z,63.08
2022-10-05T18:38:33.032Z,62.88
2022-10-05T18:41:16.858Z,63.61
2022-10-05T18:44:05.057Z,63.94
2022-10-05T18:47:19.442Z,63.94
2022-10-05T18:50:09.957Z,65.17
2022-10-05T18:52:45.952Z,65.58
2022-10-05T18:55:22.687Z,65.95
2022-10-05T18:58:20.842Z,66.35
2022-10-05T19:00:51.573Z,65.89
2022-10-05T19:03:29.385Z,66.02
2022-10-05T19:06:34.910Z,66.51
2022-10-05T19:09:08.109Z,66.42
2022-10-05T19:11:53.744Z,66.86
2022-10-05T19:14:44.293Z,67.01
2022-10-05T19:17:21.819Z,67.66
2022-10-05T19:20:30.687Z,68.16
2022-10-05T19:23:36.710Z,68.35
2022-10-05T19:26:25.545Z,68.50
2022-10-05T19:32:45.286Z,69.46
2022-10-05T19:35:46.122Z,69.14
2022-10-05T19:38:37.104Z,69.06
2022-10-05T19:41:09.971Z,69.77
2022-10-05T19:43:43.187Z,69.63
2022-10-05T19:46:32.041Z,69.71
2022-10-05T19:49:02.483Z,70.29
2022-10-05T19:51:40.369Z,71.18
2022-10-05T19:54:30.250Z,71.11
2022-10-05T19:56:58.305Z,71.05
2022-10-05T19:59:28.344Z,71.49
2022-10-05T20:01:57.232Z,71.36
2022-10-05T20:04:36.474Z,71.68
2022-10-05T20:07:06.084Z,71.48
2022-10-05T20:09:58.229Z,72.16
2022-10-05T20:12:51.744Z,71.60
2022-10-05T20:15:40.376Z,71.63
2022-10-05T20:18:55.162Z,72.44
2022-10-05T20:21:39.255Z,72.68
2022-10-05T20:24:25.841Z,72.52
2022-10-05T20:27:16.141Z,72.33
2022-10-05T20:29:58.561Z,72.13
2022-10-05T20:32:30.828Z,72.63
2022-10-05T20:35:00.281Z,72.48
2022-10-05T20:37:28.208Z,72.53
2022-10-05T20:39:55.225Z,72.58
2022-10-05T20:42:23.987Z,72.65
2022-10-05T20:44:56.708Z,73.04
2022-10-05T20:47:27.032Z,73.86
2022-10-05T20:49:57.790Z,73.53
2022-10-05T20:52:27.732Z,74.30
2022-10-05T20:54:58.283Z,74.18
2022-10-05T20:57:29.831Z,73.97
2022-10-05T21:00:13.107Z,74.22
2022-10-05T21:05:25.564Z,74.78
2022-10-05T21:07:55.743Z,74.40
2022-10-05T21:10:25.274Z,74.65
2022-10-05T21:12:52.461Z,74.82
2022-10-05T21:15:23.460Z,74.71
2022-10-05T21:17:50.831Z,74.84
2022-10-05T21:20:18.278Z,74.98
2022-10-05T21:22:45.839Z,74.76
2022-10-05T21:25:13.114Z,75.39
2022-10-05T21:30:24.754Z,75.47
2022-10-05T21:35:22.267Z,75.50
2022-10-05T21:37:49.883Z,76.00
2022-10-05T21:40:17.287Z,75.97
2022-10-05T21:42:44.341Z,76.46
2022-10-05T21:45:11.984Z,76.17
2022-10-05T21:47:39.656Z,75.83
2022-10-05T21:50:08.783Z,76.26
2022-10-05T21:52:37.116Z,76.10
2022-10-05T21:55:07.314Z,75.94
2022-10-05T21:57:35.624Z,76.23
2022-10-05T22:00:06.903Z,76.75
2022-10-05T22:02:34.959Z,77.01
2022-10-05T22:05:02.385Z,76.93
2022-10-05T22:07:29.827Z,77.59
2022-10-05T22:09:56.964Z,77.24
2022-10-05T22:12:26.620Z,77.09
2022-10-05T22:14:55.315Z,77.66
2022-10-05T22:17:27.247Z,77.60
2022-10-05T22:20:04.892Z,77.64
2022-10-05T22:22:33.240Z,77.70
2022-10-05T22:25:04.795Z,77.84
2022-10-05T22:27:33.203Z,77.79
2022-10-05T22:30:01.347Z,77.76
2022-10-05T22:32:32.777Z,77.73
2022-10-05T22:35:00.153Z,78.01
2022-10-05T22:37:27.452Z,77.81
2022-10-05T22:39:55.374Z,77.96
2022-10-05T22:42:22.471Z,77.98
2022-10-05T22:44:49.578Z,77.95
2022-10-05T22:47:19.337Z,78.35
2022-10-05T22:49:46.434Z,78.62
2022-10-05T22:52:13.666Z,78.33
2022-10-05T22:54:41.820Z,78.86
2022-10-05T22:57:08.834Z,78.79
2022-10-05T22:59:35.793Z,78.74
2022-10-05T23:02:03.138Z,78.57
2022-10-05T23:04:30.266Z,78.62
2022-10-05T23:06:57.444Z,78.57
2022-10-05T23:09:25.907Z,79.18
2022-10-05T23:11:54.406Z,78.94
2022-10-05T23:14:21.707Z,79.19
2022-10-05T23:16:52.318Z,79.23
2022-10-05T23:19:19.561Z,79.23
2022-10-05T23:21:46.668Z,78.96
2022-10-05T23:24:17.943Z,79.27
2022-10-05T23:26:45.215Z,79.28
2022-10-05T23:29:12.315Z,79.10
2022-10-05T23:31:39.680Z,79.10
2022-10-05T23:34:06.643Z,78.98
2022-10-05T23:36:33.838Z,78.85
2022-10-05T23:39:01.164Z,79.18
2022-10-05T23:41:28.274Z,79.07
2022-10-05T23:43:55.968Z,79.50
2022-10-05T23:46:24.517Z,79.76
2022-10-05T23:48:53.902Z,79.77
2022-10-05T23:51:21.733Z,79.47
2022-10-05T23:53:49.435Z,79.89
2022-10-05T23:56:16.754Z,79.79
2022-10-05T23:58:45.064Z,79.76
